Skip Navigation LinksHome page > Weather > Current weather Skip Navigation Links

Current Weather

Quantico MCAF/Turner Field, Quantico, Va.

For information only: do not use for flight planning or navigation.
Latest weather
Observation time Wednesday, January 27, 2021 10:03 AM EST
Local time Wednesday, January 27, 2021 10:53 AM EST
Flight conditions Visual Meteorological Conditions
Winds
Wind direction North (10°)
Wind speed 16 mph
Wind gusting to 24 mph
Visibility 10 mi.
Sky condition
Ceiling unlimited
Sky clear
Temperature 45°F
Dewpoint 33°F
Altimeter 30.11 in.Hg
Derived measurements
Relative humidity 63%
Wind chill 38°F
Density altitude -1047 ft.
Remarks
Automated weather observing station with precipitation discriminator.
METAR KNYG 271503Z 01014G21KT 10SM CLR 07/01 A3011 RMK AO2 T00720006

Settings

Location code

InnerDrive.Weather 4.0.6770.0 Release CLR 4.0.30319.42000
Copyright ©2018 Inner Drive Technology. All rights reserved. Portions Copyright ©1986-2018 David Braverman.

Find weather

Site navigation


Skip Navigation Links

Place info

Page info

PayPal - The safer, easier way to pay online!

Return home.

Copyright ©2021 Inner Drive Technology. Purveyors of fine, hand-crafted computer software. Page printed 2021-01-27T15:53:00 UTC.